createdAt,value
2023-05-19T00:02:20.896Z,102120.97
2023-05-19T00:04:55.862Z,102113.31
2023-05-19T00:07:31.418Z,102107.59
2023-05-19T00:10:05.125Z,102115.72
2023-05-19T00:12:39.735Z,102116.41
2023-05-19T00:15:14.229Z,102110.00
2023-05-19T00:17:47.583Z,102106.19
2023-05-19T00:20:22.122Z,102110.28
2023-05-19T00:22:55.007Z,102107.50
2023-05-19T00:25:28.085Z,102110.00
2023-05-19T00:28:02.337Z,102111.25
2023-05-19T00:30:35.270Z,102114.69
2023-05-19T00:33:08.208Z,102114.78
2023-05-19T00:35:42.515Z,102121.59
2023-05-19T00:38:15.531Z,102109.09
2023-05-19T00:40:48.387Z,102117.44
2023-05-19T00:43:21.254Z,102104.66
2023-05-19T00:45:54.337Z,102107.06
2023-05-19T00:48:27.968Z,102110.00
2023-05-19T00:51:04.738Z,102100.63
2023-05-19T00:53:37.748Z,102095.69
2023-05-19T00:56:10.823Z,102098.16
2023-05-19T00:58:43.681Z,102104.66
2023-05-19T01:01:17.211Z,102102.34
2023-05-19T01:03:51.919Z,102093.25
2023-05-19T01:06:27.703Z,102107.09
2023-05-19T01:09:00.608Z,102105.41
2023-05-19T01:11:34.011Z,102109.50
2023-05-19T01:14:06.955Z,102107.19
2023-05-19T01:16:44.221Z,102106.03
2023-05-19T01:22:54.874Z,102105.53
2023-05-19T01:25:51.883Z,102096.47
2023-05-19T01:28:42.637Z,102094.47
2023-05-19T01:31:18.347Z,102093.97
2023-05-19T01:33:54.128Z,102091.19
2023-05-19T01:36:28.304Z,102093.88
2023-05-19T01:39:04.633Z,102083.59
2023-05-19T01:41:39.144Z,102094.91
2023-05-19T01:44:15.941Z,102090.63
2023-05-19T01:46:52.328Z,102092.88
2023-05-19T01:49:25.412Z,102086.00
2023-05-19T01:51:58.289Z,102098.72
2023-05-19T01:54:31.087Z,102109.59
2023-05-19T01:57:14.089Z,102088.25
2023-05-19T01:59:53.389Z,102102.69
2023-05-19T02:02:40.085Z,102103.97
2023-05-19T02:05:28.719Z,102104.41
2023-05-19T02:08:08.394Z,102111.91
2023-05-19T02:10:48.444Z,102106.34
2023-05-19T02:13:24.115Z,102094.75
2023-05-19T02:16:04.476Z,102099.84
2023-05-19T02:18:39.039Z,102096.13
2023-05-19T02:21:13.456Z,102105.66
2023-05-19T02:23:46.704Z,102111.88
2023-05-19T02:26:20.147Z,102105.69
2023-05-19T02:28:53.026Z,102106.03
2023-05-19T02:31:26.325Z,102105.84
2023-05-19T02:34:00.607Z,102113.28
2023-05-19T02:36:35.303Z,102104.91
2023-05-19T02:39:08.723Z,102098.81
2023-05-19T02:41:41.585Z,102107.34
2023-05-19T02:44:14.571Z,102103.28
2023-05-19T02:46:47.428Z,102100.72
2023-05-19T02:49:21.832Z,102078.13
2023-05-19T02:51:54.737Z,102084.22
2023-05-19T02:54:27.771Z,102093.34
2023-05-19T02:57:01.089Z,102067.75
2023-05-19T02:59:34.490Z,102081.53
2023-05-19T03:02:07.827Z,102060.00
2023-05-19T03:04:42.974Z,102079.75
2023-05-19T03:07:16.331Z,102081.31
2023-05-19T03:09:49.260Z,102058.97
2023-05-19T03:12:22.087Z,102078.53
2023-05-19T03:14:55.048Z,102079.59
2023-05-19T03:17:33.583Z,102090.22
2023-05-19T03:20:10.780Z,102084.34
2023-05-19T03:22:43.734Z,102091.75
2023-05-19T03:25:17.023Z,102077.53
2023-05-19T03:27:50.065Z,102094.44
2023-05-19T03:30:23.154Z,102099.00
2023-05-19T03:33:09.900Z,102095.22
2023-05-19T03:35:44.680Z,102099.41
2023-05-19T03:38:18.247Z,102095.91
2023-05-19T03:41:02.625Z,102098.38
2023-05-19T03:43:35.549Z,102098.38
2023-05-19T03:46:10.956Z,102097.72
2023-05-19T03:48:46.888Z,102090.41
2023-05-19T03:51:30.833Z,102074.47
2023-05-19T03:54:11.975Z,102105.16
2023-05-19T03:56:45.924Z,102095.72
2023-05-19T03:59:18.872Z,102091.06
2023-05-19T04:01:52.659Z,102089.63
2023-05-19T04:04:26.709Z,102092.56
2023-05-19T04:07:01.473Z,102092.88
2023-05-19T04:09:35.328Z,102102.09
2023-05-19T04:12:09.209Z,102097.75
2023-05-19T04:14:42.398Z,102110.13
2023-05-19T04:17:16.413Z,102109.44
2023-05-19T04:19:49.280Z,102108.84
2023-05-19T04:22:23.506Z,102096.75
2023-05-19T04:24:56.462Z,102113.50
2023-05-19T04:27:31.893Z,102111.66
2023-05-19T04:30:05.468Z,102101.00
2023-05-19T04:32:39.594Z,102102.38
2023-05-19T04:35:13.623Z,102109.25
2023-05-19T04:37:48.423Z,102109.81
2023-05-19T04:40:24.646Z,102117.91
2023-05-19T04:43:01.932Z,102096.28
2023-05-19T04:45:37.529Z,102110.34
2023-05-19T04:48:12.177Z,102115.84
2023-05-19T04:50:45.048Z,102112.06
2023-05-19T04:53:19.229Z,102109.75
2023-05-19T04:55:52.209Z,102117.56
2023-05-19T04:58:25.940Z,102131.50
2023-05-19T05:00:59.398Z,102125.03
2023-05-19T05:03:34.409Z,102102.75
2023-05-19T05:06:07.755Z,102114.47
2023-05-19T05:08:42.586Z,102107.22
2023-05-19T05:11:16.025Z,102110.13
2023-05-19T05:13:49.813Z,102116.69
2023-05-19T05:16:23.217Z,102114.16
2023-05-19T05:18:57.461Z,102115.53
2023-05-19T05:21:31.746Z,102108.94
2023-05-19T05:24:07.642Z,102123.88
2023-05-19T05:26:42.812Z,102114.56
2023-05-19T05:29:15.919Z,102102.97
2023-05-19T05:31:48.835Z,102112.97
2023-05-19T05:34:22.443Z,102110.69
2023-05-19T05:36:56.182Z,102101.94
2023-05-19T05:39:31.760Z,102113.69
2023-05-19T05:42:05.014Z,102103.22
2023-05-19T05:44:37.859Z,102100.50
2023-05-19T05:47:12.879Z,102110.03
2023-05-19T05:49:48.123Z,102107.13
2023-05-19T05:52:23.444Z,102103.09
2023-05-19T05:55:00.095Z,102110.41
2023-05-19T05:57:35.194Z,102107.16
2023-05-19T06:00:15.462Z,102098.16
2023-05-19T06:02:51.454Z,102102.25
2023-05-19T06:05:25.842Z,102101.28
2023-05-19T06:08:00.220Z,102107.47
2023-05-19T06:10:36.779Z,102094.88
2023-05-19T06:13:12.827Z,102095.59
2023-05-19T06:15:47.686Z,102107.97
2023-05-19T06:18:29.220Z,102105.44
2023-05-19T06:21:03.224Z,102097.78
2023-05-19T06:23:36.399Z,102098.88
2023-05-19T06:26:12.706Z,102096.53
2023-05-19T06:28:45.600Z,102095.00
2023-05-19T06:31:18.564Z,102105.28
2023-05-19T06:34:00.590Z,102101.88
2023-05-19T06:36:35.133Z,102098.22
2023-05-19T06:39:08.471Z,102100.72
2023-05-19T06:41:43.585Z,102087.47
2023-05-19T06:44:17.116Z,102088.72
2023-05-19T06:46:53.292Z,102087.06
2023-05-19T06:49:29.277Z,102093.66
2023-05-19T06:52:02.196Z,102088.00
2023-05-19T06:54:35.402Z,102070.94
2023-05-19T06:57:09.975Z,102087.44
2023-05-19T06:59:43.480Z,102078.09
2023-05-19T07:02:16.473Z,102089.72
2023-05-19T07:04:51.299Z,102092.78
2023-05-19T07:07:24.237Z,102083.03
2023-05-19T07:09:57.833Z,102086.59
2023-05-19T07:12:33.239Z,102074.94
2023-05-19T07:15:07.162Z,102081.53
2023-05-19T07:17:41.265Z,102086.19
2023-05-19T07:20:14.920Z,102084.72
2023-05-19T07:22:47.781Z,102090.22
2023-05-19T07:25:21.664Z,102083.75
2023-05-19T07:27:56.371Z,102073.38
2023-05-19T07:30:30.855Z,102085.69
2023-05-19T07:33:03.969Z,102078.53
2023-05-19T07:35:37.403Z,102054.53
2023-05-19T07:38:10.291Z,102065.31
2023-05-19T07:40:43.161Z,102079.09
2023-05-19T07:43:17.418Z,102071.28
2023-05-19T07:45:50.330Z,102076.38
2023-05-19T07:48:24.562Z,102070.31
2023-05-19T07:50:57.430Z,102061.72
2023-05-19T07:53:30.567Z,102052.75
2023-05-19T07:56:03.671Z,102070.84
2023-05-19T07:58:37.867Z,102064.78
2023-05-19T08:01:10.797Z,102060.78
2023-05-19T08:03:43.811Z,102058.88
2023-05-19T08:06:16.779Z,102057.78
2023-05-19T08:08:49.620Z,102050.53
2023-05-19T08:11:22.914Z,102059.50
2023-05-19T08:13:57.434Z,102058.88
2023-05-19T08:16:30.515Z,102048.69
2023-05-19T08:19:05.401Z,102054.97
2023-05-19T08:21:38.448Z,102046.72
2023-05-19T08:24:11.362Z,102056.13
2023-05-19T08:26:45.122Z,102046.44
2023-05-19T08:29:19.339Z,102059.72
2023-05-19T08:31:53.110Z,102046.16
2023-05-19T08:34:26.287Z,102045.69
2023-05-19T08:36:59.719Z,102047.50
2023-05-19T08:39:34.142Z,102023.94
2023-05-19T08:42:10.107Z,102024.44
2023-05-19T08:44:44.510Z,102027.97
2023-05-19T08:47:18.922Z,102024.78
2023-05-19T08:49:54.339Z,102028.59
2023-05-19T08:52:35.645Z,102019.72
2023-05-19T08:55:13.784Z,102027.50
2023-05-19T08:57:46.758Z,102020.03
2023-05-19T09:00:22.702Z,102022.13
2023-05-19T09:03:00.455Z,102016.22
2023-05-19T09:05:40.109Z,102018.09
2023-05-19T09:08:13.428Z,102014.59
2023-05-19T09:10:46.780Z,102008.41
2023-05-19T09:13:19.707Z,101995.75
2023-05-19T09:15:54.638Z,102010.03
2023-05-19T09:18:28.045Z,102007.22
2023-05-19T09:21:02.656Z,102004.13
2023-05-19T09:23:35.997Z,101994.38
2023-05-19T09:26:08.904Z,102000.88
2023-05-19T09:28:42.386Z,101995.50
2023-05-19T09:31:17.113Z,101995.97
2023-05-19T09:33:54.146Z,101995.09
2023-05-19T09:36:27.432Z,101998.47
2023-05-19T09:39:00.271Z,101985.09
2023-05-19T09:41:34.436Z,101977.31
2023-05-19T09:44:07.863Z,101986.31
2023-05-19T09:46:50.482Z,101992.91
2023-05-19T09:49:24.468Z,101982.13
2023-05-19T09:51:57.689Z,101979.91
2023-05-19T09:54:32.256Z,101977.47
2023-05-19T09:57:08.542Z,101970.34
2023-05-19T09:59:42.956Z,101981.91
2023-05-19T10:02:21.530Z,101981.19
2023-05-19T10:04:56.102Z,101961.19
2023-05-19T10:07:29.978Z,101960.47
2023-05-19T10:10:03.878Z,101955.88
2023-05-19T10:12:38.433Z,101944.47
2023-05-19T10:15:12.623Z,101961.66
2023-05-19T10:17:47.661Z,101961.78
2023-05-19T10:20:20.570Z,101959.06
2023-05-19T10:22:53.526Z,101961.81
2023-05-19T10:25:26.498Z,101945.59
2023-05-19T10:28:04.796Z,101953.81
2023-05-19T10:30:42.042Z,101950.56
2023-05-19T10:33:19.578Z,101949.28
2023-05-19T10:36:11.434Z,101938.13
2023-05-19T10:38:52.099Z,101943.31
2023-05-19T10:41:29.772Z,101941.66
2023-05-19T10:44:13.556Z,101934.94
2023-05-19T10:46:46.793Z,101924.94
2023-05-19T10:49:24.448Z,101942.53
2023-05-19T10:51:57.794Z,101930.88
2023-05-19T10:54:40.983Z,101926.03
2023-05-19T10:57:16.487Z,101923.31
2023-05-19T10:59:51.135Z,101937.09
2023-05-19T11:02:44.359Z,101932.81
2023-05-19T11:05:19.474Z,101919.91
2023-05-19T11:08:02.354Z,101919.00
2023-05-19T11:10:35.768Z,101920.13
2023-05-19T11:13:08.707Z,101906.13
2023-05-19T11:15:43.955Z,101915.53
2023-05-19T11:18:17.167Z,101899.38
2023-05-19T11:21:02.273Z,101913.25
2023-05-19T11:23:39.904Z,101916.56
2023-05-19T11:26:13.881Z,101919.94
2023-05-19T11:28:48.742Z,101911.13
2023-05-19T11:31:22.928Z,101913.69
2023-05-19T11:33:55.961Z,101910.75
2023-05-19T11:36:31.194Z,101910.72
2023-05-19T11:39:09.307Z,101910.91
2023-05-19T11:41:42.218Z,101882.22
2023-05-19T11:44:16.111Z,101905.50
2023-05-19T11:46:49.883Z,101910.03
2023-05-19T11:49:22.930Z,101908.00
2023-05-19T11:51:57.640Z,101900.91
2023-05-19T11:54:32.503Z,101883.19
2023-05-19T11:57:06.358Z,101887.88
2023-05-19T11:59:43.695Z,101900.81
2023-05-19T12:02:21.093Z,101881.91
2023-05-19T12:04:54.619Z,101898.16
2023-05-19T12:07:29.794Z,101860.38
2023-05-19T12:10:02.697Z,101885.44
2023-05-19T12:12:35.932Z,101885.81
2023-05-19T12:15:10.307Z,101871.16
2023-05-19T12:17:43.319Z,101885.28
2023-05-19T12:20:16.259Z,101883.59
2023-05-19T12:22:51.813Z,101881.53
2023-05-19T12:25:25.310Z,101871.94
2023-05-19T12:28:03.331Z,101869.03
2023-05-19T12:30:36.935Z,101885.69
2023-05-19T12:33:10.116Z,101865.66
2023-05-19T12:35:43.507Z,101864.56
2023-05-19T12:38:18.115Z,101856.34
2023-05-19T12:40:51.302Z,101857.22
2023-05-19T12:43:24.477Z,101862.94
2023-05-19T12:45:57.428Z,101861.66
2023-05-19T12:48:31.450Z,101862.28
2023-05-19T12:51:05.528Z,101859.34
2023-05-19T12:53:39.724Z,101852.84
2023-05-19T12:56:13.888Z,101843.28
2023-05-19T12:58:54.496Z,101845.69
2023-05-19T13:01:27.777Z,101849.00
2023-05-19T13:04:01.704Z,101842.31
2023-05-19T13:06:36.300Z,101842.75
2023-05-19T13:09:11.418Z,101830.44
2023-05-19T13:11:44.462Z,101824.47
2023-05-19T13:14:18.545Z,101828.78
2023-05-19T13:16:51.424Z,101833.41
2023-05-19T13:19:25.819Z,101835.31
2023-05-19T13:21:59.307Z,101836.88
2023-05-19T13:24:33.826Z,101837.31
2023-05-19T13:27:06.953Z,101842.47
2023-05-19T13:29:39.828Z,101832.13
2023-05-19T13:32:12.680Z,101824.28
2023-05-19T13:34:45.578Z,101826.41
2023-05-19T13:37:18.603Z,101829.84
2023-05-19T13:39:52.900Z,101833.31
2023-05-19T13:42:26.153Z,101814.19
2023-05-19T13:44:58.965Z,101823.63
2023-05-19T13:47:32.360Z,101817.94
2023-05-19T13:50:07.068Z,101806.78
2023-05-19T13:52:39.964Z,101803.38
2023-05-19T13:55:14.258Z,101811.47
2023-05-19T13:57:47.163Z,101801.53
2023-05-19T14:00:21.285Z,101825.59
2023-05-19T14:02:54.263Z,101815.81
2023-05-19T14:05:28.741Z,101811.91
2023-05-19T14:08:03.649Z,101793.13
2023-05-19T14:10:37.975Z,101810.59
2023-05-19T14:13:31.530Z,101804.41
2023-05-19T14:16:05.748Z,101810.50
2023-05-19T14:18:39.101Z,101812.19
2023-05-19T14:21:12.084Z,101816.34
2023-05-19T14:23:45.174Z,101817.16
2023-05-19T14:26:19.626Z,101808.28
2023-05-19T14:28:52.638Z,101805.09
2023-05-19T14:31:28.383Z,101811.63
2023-05-19T14:34:01.230Z,101816.22
2023-05-19T14:36:35.073Z,101810.97
2023-05-19T14:39:08.257Z,101793.38
2023-05-19T14:41:42.860Z,101793.03
2023-05-19T14:44:15.779Z,101806.28
2023-05-19T14:46:49.043Z,101787.25
2023-05-19T14:49:21.974Z,101800.41
2023-05-19T14:51:54.810Z,101794.56
2023-05-19T14:54:28.091Z,101801.03
2023-05-19T14:57:02.977Z,101790.66
2023-05-19T14:59:38.273Z,101806.88
2023-05-19T15:02:11.878Z,101806.41
2023-05-19T15:04:44.695Z,101785.34
2023-05-19T15:07:17.692Z,101810.31
2023-05-19T15:09:50.495Z,101800.44
2023-05-19T15:12:25.061Z,101790.84
2023-05-19T15:14:57.973Z,101794.94
2023-05-19T15:17:31.018Z,101796.44
2023-05-19T15:20:03.954Z,101797.19
2023-05-19T15:22:40.218Z,101794.19
2023-05-19T15:25:13.241Z,101795.88
2023-05-19T15:27:47.933Z,101790.81
2023-05-19T15:30:21.031Z,101789.41
2023-05-19T15:32:56.540Z,101780.50
2023-05-19T15:35:29.645Z,101787.69
2023-05-19T15:38:06.101Z,101798.56
2023-05-19T15:40:39.277Z,101789.41
2023-05-19T15:43:14.589Z,101792.06
2023-05-19T15:45:47.924Z,101794.94
2023-05-19T15:48:20.846Z,101775.78
2023-05-19T15:50:53.787Z,101793.91
2023-05-19T15:53:26.801Z,101788.25
2023-05-19T15:55:59.705Z,101782.69
2023-05-19T15:58:33.946Z,101776.44
2023-05-19T16:01:07.616Z,101769.94
2023-05-19T16:03:40.638Z,101774.91
2023-05-19T16:06:13.679Z,101760.47
2023-05-19T16:08:46.528Z,101763.75
2023-05-19T16:11:20.614Z,101767.25
2023-05-19T16:13:55.455Z,101769.19
2023-05-19T16:16:29.027Z,101769.16
2023-05-19T16:19:07.458Z,101758.13
2023-05-19T16:21:40.426Z,101763.59
2023-05-19T16:24:13.637Z,101759.75
2023-05-19T16:26:48.504Z,101754.03
2023-05-19T16:29:22.720Z,101757.03
2023-05-19T16:31:55.654Z,101750.25
2023-05-19T16:34:30.612Z,101731.81
2023-05-19T16:37:04.010Z,101733.13
2023-05-19T16:39:37.749Z,101723.41
2023-05-19T16:42:10.738Z,101738.03
2023-05-19T16:44:45.195Z,101734.50
2023-05-19T16:47:18.131Z,101730.81
2023-05-19T16:49:51.295Z,101724.16
2023-05-19T16:52:24.277Z,101719.00
2023-05-19T16:54:57.169Z,101720.56
2023-05-19T16:57:30.483Z,101729.75
2023-05-19T17:00:05.404Z,101732.78
2023-05-19T17:02:38.424Z,101728.50
2023-05-19T17:05:11.451Z,101737.03
2023-05-19T17:07:44.485Z,101722.69
2023-05-19T17:10:17.523Z,101726.72
2023-05-19T17:12:50.435Z,101715.03
2023-05-19T17:15:24.709Z,101710.75
2023-05-19T17:17:57.602Z,101729.00
2023-05-19T17:20:31.202Z,101729.56
2023-05-19T17:23:04.108Z,101727.75
2023-05-19T17:25:37.207Z,101722.50
2023-05-19T17:28:10.295Z,101721.69
2023-05-19T17:30:44.669Z,101727.16
2023-05-19T17:33:17.817Z,101708.59
2023-05-19T17:35:50.806Z,101725.13
2023-05-19T17:38:23.617Z,101716.66
2023-05-19T17:40:59.358Z,101713.19
2023-05-19T17:43:32.353Z,101720.66
2023-05-19T17:46:09.192Z,101729.50
2023-05-19T17:48:42.082Z,101698.28
2023-05-19T17:51:15.143Z,101726.13
2023-05-19T17:53:48.641Z,101732.50
2023-05-19T17:56:23.033Z,101733.91
2023-05-19T17:58:56.936Z,101742.91
2023-05-19T18:01:32.223Z,101732.47
2023-05-19T18:04:06.032Z,101742.31
2023-05-19T18:06:41.581Z,101744.16
2023-05-19T18:09:14.995Z,101746.94
2023-05-19T18:11:47.916Z,101745.63
2023-05-19T18:14:21.253Z,101741.97
2023-05-19T18:16:55.890Z,101747.34
2023-05-19T18:19:29.780Z,101739.03
2023-05-19T18:22:02.981Z,101729.00
2023-05-19T18:24:35.831Z,101736.44
2023-05-19T18:27:09.229Z,101740.72
2023-05-19T18:29:43.353Z,101751.94
2023-05-19T18:32:17.896Z,101740.72
2023-05-19T18:34:50.877Z,101747.13
2023-05-19T18:37:23.709Z,101748.47
2023-05-19T18:39:56.671Z,101746.78
2023-05-19T18:42:29.783Z,101754.56
2023-05-19T18:45:02.716Z,101753.94
2023-05-19T18:47:38.033Z,101754.88
2023-05-19T18:50:11.457Z,101762.22
2023-05-19T18:52:44.385Z,101761.22
2023-05-19T18:55:17.443Z,101762.91
2023-05-19T18:57:51.336Z,101771.25
2023-05-19T19:00:25.921Z,101775.97
2023-05-19T19:03:00.207Z,101766.69
2023-05-19T19:05:32.934Z,101770.41
2023-05-19T19:08:06.543Z,101773.41
2023-05-19T19:10:40.658Z,101766.38
2023-05-19T19:13:13.775Z,101769.78
2023-05-19T19:15:46.686Z,101775.25
2023-05-19T19:18:20.890Z,101776.84
2023-05-19T19:20:54.800Z,101782.19
2023-05-19T19:23:27.819Z,101786.03
2023-05-19T19:26:00.821Z,101796.63
2023-05-19T19:28:33.674Z,101801.06
2023-05-19T19:31:06.552Z,101802.44
2023-05-19T19:33:43.273Z,101806.06
2023-05-19T19:36:16.136Z,101802.38
2023-05-19T19:38:49.404Z,101807.50
2023-05-19T19:41:22.357Z,101809.41
2023-05-19T19:43:55.363Z,101809.41
2023-05-19T19:46:28.292Z,101816.72
2023-05-19T19:49:02.818Z,101807.19
2023-05-19T19:51:35.681Z,101810.56
2023-05-19T19:54:08.569Z,101817.13
2023-05-19T19:56:41.412Z,101817.09
2023-05-19T19:59:14.287Z,101820.22
2023-05-19T20:01:47.314Z,101826.63
2023-05-19T20:04:21.768Z,101823.22
2023-05-19T20:06:54.638Z,101826.59
2023-05-19T20:09:27.586Z,101825.63
2023-05-19T20:12:00.498Z,101833.13
2023-05-19T20:14:33.408Z,101828.59
2023-05-19T20:17:06.347Z,101822.38
2023-05-19T20:19:40.661Z,101829.50
2023-05-19T20:22:13.786Z,101821.09
2023-05-19T20:24:47.050Z,101826.28
2023-05-19T20:27:19.901Z,101823.03
2023-05-19T20:29:52.901Z,101825.34
2023-05-19T20:32:26.164Z,101825.59
2023-05-19T20:35:00.785Z,101823.25
2023-05-19T20:37:33.879Z,101824.69
2023-05-19T20:40:08.037Z,101837.09
2023-05-19T20:42:41.197Z,101834.38
2023-05-19T20:45:14.153Z,101835.16
2023-05-19T20:47:47.174Z,101831.38
2023-05-19T20:50:21.640Z,101834.44
2023-05-19T20:52:54.726Z,101836.94
2023-05-19T20:55:27.906Z,101843.31
2023-05-19T20:58:00.846Z,101841.50
2023-05-19T21:00:34.052Z,101841.41
2023-05-19T21:03:07.243Z,101850.44
2023-05-19T21:05:41.483Z,101852.56
2023-05-19T21:08:14.340Z,101846.50
2023-05-19T21:10:47.447Z,101850.34
2023-05-19T21:13:20.709Z,101852.97
2023-05-19T21:15:53.618Z,101839.31
2023-05-19T21:18:26.502Z,101843.75
2023-05-19T21:21:04.356Z,101849.44
2023-05-19T21:23:37.201Z,101851.66
2023-05-19T21:26:10.656Z,101847.69
2023-05-19T21:28:43.756Z,101855.78
2023-05-19T21:31:16.743Z,101845.22
2023-05-19T21:33:49.676Z,101846.47
2023-05-19T21:36:24.064Z,101847.06
2023-05-19T21:38:57.337Z,101848.47
2023-05-19T21:41:31.032Z,101851.06
2023-05-19T21:44:04.431Z,101846.47
2023-05-19T21:46:37.388Z,101835.88
2023-05-19T21:49:10.337Z,101840.97
2023-05-19T21:51:44.539Z,101837.03
2023-05-19T21:54:17.400Z,101843.25
2023-05-19T21:56:59.123Z,101826.25
2023-05-19T21:59:31.982Z,101845.25
2023-05-19T22:02:05.441Z,101846.13
2023-05-19T22:04:38.559Z,101847.56
2023-05-19T22:07:13.091Z,101846.72
2023-05-19T22:09:46.944Z,101841.00
2023-05-19T22:12:21.615Z,101837.03
2023-05-19T22:14:54.441Z,101835.19
2023-05-19T22:17:27.462Z,101839.72
2023-05-19T22:20:00.356Z,101841.88
2023-05-19T22:22:35.073Z,101839.34
2023-05-19T22:25:08.764Z,101839.03
2023-05-19T22:27:41.738Z,101839.19
2023-05-19T22:30:14.624Z,101842.31
2023-05-19T22:32:47.493Z,101839.19
2023-05-19T22:35:20.398Z,101834.22
2023-05-19T22:37:54.877Z,101832.81
2023-05-19T22:40:27.758Z,101837.47
2023-05-19T22:43:00.617Z,101835.34
2023-05-19T22:45:34.859Z,101836.91
2023-05-19T22:48:08.162Z,101832.22
2023-05-19T22:50:41.051Z,101837.63
2023-05-19T22:53:15.439Z,101834.38
2023-05-19T22:55:48.443Z,101831.22
2023-05-19T22:58:21.267Z,101842.16
2023-05-19T23:00:54.365Z,101829.97
2023-05-19T23:03:27.340Z,101836.22
2023-05-19T23:06:00.214Z,101830.81
2023-05-19T23:08:34.398Z,101823.97
2023-05-19T23:11:07.951Z,101822.00
2023-05-19T23:13:41.147Z,101818.72
2023-05-19T23:16:13.973Z,101821.44
2023-05-19T23:18:46.849Z,101804.09
2023-05-19T23:21:19.767Z,101809.19
2023-05-19T23:23:54.044Z,101815.56
2023-05-19T23:26:27.317Z,101823.88
2023-05-19T23:29:00.565Z,101830.13
2023-05-19T23:31:34.812Z,101823.88
2023-05-19T23:34:08.223Z,101826.72
2023-05-19T23:36:41.335Z,101822.38
2023-05-19T23:39:15.482Z,101818.13
2023-05-19T23:41:48.361Z,101822.06
2023-05-19T23:44:21.269Z,101817.13
2023-05-19T23:46:54.195Z,101825.59
2023-05-19T23:49:27.111Z,101819.78
2023-05-19T23:52:00.294Z,101821.97
2023-05-19T23:54:34.609Z,101824.31
2023-05-19T23:57:08.043Z,101819.78
2023-05-19T23:59:41.361Z,101823.81
